sensor_id;sensor_type;location;lat;lon;timestamp;P1;durP1;ratioP1;P2;durP2;ratioP2
55435;SDS011;41307;53.142;6.430;2023-08-01T00:02:10;4.25;;;1.33;;
55435;SDS011;41307;53.142;6.430;2023-08-01T00:04:36;4.22;;;1.20;;
55435;SDS011;41307;53.142;6.430;2023-08-01T00:07:02;4.57;;;1.40;;
55435;SDS011;41307;53.142;6.430;2023-08-01T00:09:28;4.18;;;1.52;;
55435;SDS011;41307;53.142;6.430;2023-08-01T00:11:53;3.30;;;1.40;;
55435;SDS011;41307;53.142;6.430;2023-08-01T00:14:20;2.85;;;1.20;;
55435;SDS011;41307;53.142;6.430;2023-08-01T00:16:49;4.43;;;1.42;;
55435;SDS011;41307;53.142;6.430;2023-08-01T00:19:15;3.45;;;1.40;;
55435;SDS011;41307;53.142;6.430;2023-08-01T00:21:41;3.28;;;1.17;;
55435;SDS011;41307;53.142;6.430;2023-08-01T00:24:07;3.25;;;1.50;;
55435;SDS011;41307;53.142;6.430;2023-08-01T00:26:34;2.83;;;1.08;;
55435;SDS011;41307;53.142;6.430;2023-08-01T00:29:00;5.00;;;1.40;;
55435;SDS011;41307;53.142;6.430;2023-08-01T00:31:26;3.08;;;1.35;;
55435;SDS011;41307;53.142;6.430;2023-08-01T00:33:52;4.03;;;1.60;;
55435;SDS011;41307;53.142;6.430;2023-08-01T00:36:18;3.92;;;1.90;;
55435;SDS011;41307;53.142;6.430;2023-08-01T00:38:43;2.72;;;1.05;;
55435;SDS011;41307;53.142;6.430;2023-08-01T00:41:10;6.85;;;1.60;;
55435;SDS011;41307;53.142;6.430;2023-08-01T00:43:36;2.55;;;1.20;;
55435;SDS011;41307;53.142;6.430;2023-08-01T00:46:03;4.32;;;1.10;;
55435;SDS011;41307;53.142;6.430;2023-08-01T00:48:31;2.47;;;1.20;;
55435;SDS011;41307;53.142;6.430;2023-08-01T00:50:57;3.00;;;1.63;;
55435;SDS011;41307;53.142;6.430;2023-08-01T00:53:24;2.78;;;1.20;;
55435;SDS011;41307;53.142;6.430;2023-08-01T00:55:51;3.17;;;1.20;;
55435;SDS011;41307;53.142;6.430;2023-08-01T00:58:18;3.33;;;1.60;;
55435;SDS011;41307;53.142;6.430;2023-08-01T01:00:45;2.63;;;1.33;;
55435;SDS011;41307;53.142;6.430;2023-08-01T01:03:11;3.70;;;1.20;;
55435;SDS011;41307;53.142;6.430;2023-08-01T01:05:38;4.10;;;1.27;;
55435;SDS011;41307;53.142;6.430;2023-08-01T01:08:14;4.20;;;1.58;;
55435;SDS011;41307;53.142;6.430;2023-08-01T01:10:40;2.35;;;1.20;;
55435;SDS011;41307;53.142;6.430;2023-08-01T01:13:06;2.85;;;1.08;;
55435;SDS011;41307;53.142;6.430;2023-08-01T01:15:32;4.40;;;1.65;;
55435;SDS011;41307;53.142;6.430;2023-08-01T01:17:57;2.33;;;1.00;;
55435;SDS011;41307;53.142;6.430;2023-08-01T01:20:23;3.33;;;1.50;;
55435;SDS011;41307;53.142;6.430;2023-08-01T01:22:49;3.13;;;1.30;;
55435;SDS011;41307;53.142;6.430;2023-08-01T01:25:18;3.45;;;1.20;;
55435;SDS011;41307;53.142;6.430;2023-08-01T01:27:45;2.92;;;1.17;;
55435;SDS011;41307;53.142;6.430;2023-08-01T01:30:14;2.53;;;1.35;;
55435;SDS011;41307;53.142;6.430;2023-08-01T01:32:41;5.65;;;1.20;;
55435;SDS011;41307;53.142;6.430;2023-08-01T01:35:07;4.28;;;1.33;;
55435;SDS011;41307;53.142;6.430;2023-08-01T01:37:33;2.50;;;1.25;;
55435;SDS011;41307;53.142;6.430;2023-08-01T01:39:58;2.45;;;1.20;;
55435;SDS011;41307;53.142;6.430;2023-08-01T01:42:24;3.05;;;1.10;;
55435;SDS011;41307;53.142;6.430;2023-08-01T01:44:50;1.55;;;1.00;;
55435;SDS011;41307;53.142;6.430;2023-08-01T01:47:16;3.08;;;1.10;;
55435;SDS011;41307;53.142;6.430;2023-08-01T01:49:42;2.75;;;1.00;;
55435;SDS011;41307;53.142;6.430;2023-08-01T01:52:08;3.30;;;1.50;;
55435;SDS011;41307;53.142;6.430;2023-08-01T01:54:34;3.05;;;1.10;;
55435;SDS011;41307;53.142;6.430;2023-08-01T01:56:59;1.70;;;1.00;;
55435;SDS011;41307;53.142;6.430;2023-08-01T01:59:25;2.17;;;0.98;;
55435;SDS011;41307;53.142;6.430;2023-08-01T02:01:51;2.60;;;1.15;;
55435;SDS011;41307;53.142;6.430;2023-08-01T02:04:16;1.70;;;1.17;;
55435;SDS011;41307;53.142;6.430;2023-08-01T02:06:43;3.30;;;1.33;;
55435;SDS011;41307;53.142;6.430;2023-08-01T02:09:09;1.88;;;1.00;;
55435;SDS011;41307;53.142;6.430;2023-08-01T02:11:34;2.80;;;0.98;;
55435;SDS011;41307;53.142;6.430;2023-08-01T02:14:00;2.42;;;1.10;;
55435;SDS011;41307;53.142;6.430;2023-08-01T02:16:28;3.17;;;1.50;;
55435;SDS011;41307;53.142;6.430;2023-08-01T02:18:53;3.17;;;1.27;;
55435;SDS011;41307;53.142;6.430;2023-08-01T02:21:19;3.83;;;1.15;;
55435;SDS011;41307;53.142;6.430;2023-08-01T02:23:45;2.15;;;1.00;;
55435;SDS011;41307;53.142;6.430;2023-08-01T02:26:10;2.92;;;1.17;;
55435;SDS011;41307;53.142;6.430;2023-08-01T02:28:36;1.80;;;0.80;;
55435;SDS011;41307;53.142;6.430;2023-08-01T02:31:02;3.13;;;1.58;;
55435;SDS011;41307;53.142;6.430;2023-08-01T02:33:27;2.28;;;1.23;;
55435;SDS011;41307;53.142;6.430;2023-08-01T02:35:53;2.47;;;1.15;;
55435;SDS011;41307;53.142;6.430;2023-08-01T02:38:19;3.42;;;1.15;;
55435;SDS011;41307;53.142;6.430;2023-08-01T02:40:45;1.67;;;0.90;;
55435;SDS011;41307;53.142;6.430;2023-08-01T02:43:10;3.22;;;1.40;;
55435;SDS011;41307;53.142;6.430;2023-08-01T02:45:36;3.72;;;1.60;;
55435;SDS011;41307;53.142;6.430;2023-08-01T02:48:02;3.60;;;1.35;;
55435;SDS011;41307;53.142;6.430;2023-08-01T02:50:28;2.80;;;1.50;;
55435;SDS011;41307;53.142;6.430;2023-08-01T02:52:53;2.40;;;1.08;;
55435;SDS011;41307;53.142;6.430;2023-08-01T02:55:19;3.08;;;1.25;;
55435;SDS011;41307;53.142;6.430;2023-08-01T02:57:45;6.13;;;1.40;;
55435;SDS011;41307;53.142;6.430;2023-08-01T03:00:11;1.60;;;1.02;;
55435;SDS011;41307;53.142;6.430;2023-08-01T03:02:37;2.95;;;1.38;;
55435;SDS011;41307;53.142;6.430;2023-08-01T03:05:07;4.18;;;1.23;;
55435;SDS011;41307;53.142;6.430;2023-08-01T03:07:33;4.47;;;1.33;;
55435;SDS011;41307;53.142;6.430;2023-08-01T03:09:59;3.70;;;1.45;;
55435;SDS011;41307;53.142;6.430;2023-08-01T03:12:26;6.05;;;1.80;;
55435;SDS011;41307;53.142;6.430;2023-08-01T03:14:52;4.65;;;1.80;;
55435;SDS011;41307;53.142;6.430;2023-08-01T03:17:18;2.45;;;1.38;;
55435;SDS011;41307;53.142;6.430;2023-08-01T03:19:43;3.33;;;1.30;;
55435;SDS011;41307;53.142;6.430;2023-08-01T03:22:09;4.05;;;1.55;;
55435;SDS011;41307;53.142;6.430;2023-08-01T03:24:35;3.55;;;1.50;;
55435;SDS011;41307;53.142;6.430;2023-08-01T03:27:01;3.85;;;1.70;;
55435;SDS011;41307;53.142;6.430;2023-08-01T03:29:28;5.00;;;1.85;;
55435;SDS011;41307;53.142;6.430;2023-08-01T03:31:54;3.85;;;1.73;;
55435;SDS011;41307;53.142;6.430;2023-08-01T03:34:20;4.28;;;1.65;;
55435;SDS011;41307;53.142;6.430;2023-08-01T03:36:45;3.83;;;1.80;;
55435;SDS011;41307;53.142;6.430;2023-08-01T03:39:11;4.22;;;2.17;;
55435;SDS011;41307;53.142;6.430;2023-08-01T03:41:37;3.38;;;1.33;;
55435;SDS011;41307;53.142;6.430;2023-08-01T03:44:03;2.05;;;1.13;;
55435;SDS011;41307;53.142;6.430;2023-08-01T03:46:29;4.60;;;1.33;;
55435;SDS011;41307;53.142;6.430;2023-08-01T03:48:57;2.25;;;0.90;;
55435;SDS011;41307;53.142;6.430;2023-08-01T03:51:23;3.92;;;1.23;;
55435;SDS011;41307;53.142;6.430;2023-08-01T03:53:49;4.43;;;1.00;;
55435;SDS011;41307;53.142;6.430;2023-08-01T03:56:15;4.25;;;0.98;;
55435;SDS011;41307;53.142;6.430;2023-08-01T03:58:41;2.22;;;1.00;;
55435;SDS011;41307;53.142;6.430;2023-08-01T04:01:06;3.72;;;0.95;;
55435;SDS011;41307;53.142;6.430;2023-08-01T04:03:32;4.50;;;0.95;;
55435;SDS011;41307;53.142;6.430;2023-08-01T04:06:00;1.48;;;0.70;;
55435;SDS011;41307;53.142;6.430;2023-08-01T04:08:26;2.10;;;0.70;;
55435;SDS011;41307;53.142;6.430;2023-08-01T04:10:52;3.45;;;0.80;;
55435;SDS011;41307;53.142;6.430;2023-08-01T04:13:17;1.85;;;0.77;;
55435;SDS011;41307;53.142;6.430;2023-08-01T04:15:43;2.80;;;0.60;;
55435;SDS011;41307;53.142;6.430;2023-08-01T04:18:09;1.40;;;0.60;;
55435;SDS011;41307;53.142;6.430;2023-08-01T04:20:35;2.40;;;0.70;;
55435;SDS011;41307;53.142;6.430;2023-08-01T04:23:01;1.75;;;0.50;;
55435;SDS011;41307;53.142;6.430;2023-08-01T04:25:26;1.00;;;0.60;;
55435;SDS011;41307;53.142;6.430;2023-08-01T04:27:52;2.25;;;0.55;;
55435;SDS011;41307;53.142;6.430;2023-08-01T04:30:18;1.77;;;0.60;;
55435;SDS011;41307;53.142;6.430;2023-08-01T04:32:44;3.08;;;0.70;;
55435;SDS011;41307;53.142;6.430;2023-08-01T04:35:10;1.15;;;0.50;;
55435;SDS011;41307;53.142;6.430;2023-08-01T04:37:39;2.28;;;0.70;;
55435;SDS011;41307;53.142;6.430;2023-08-01T04:40:05;2.05;;;0.80;;
55435;SDS011;41307;53.142;6.430;2023-08-01T04:42:31;1.88;;;0.60;;
55435;SDS011;41307;53.142;6.430;2023-08-01T04:44:57;1.00;;;0.45;;
55435;SDS011;41307;53.142;6.430;2023-08-01T04:47:23;2.42;;;0.80;;
55435;SDS011;41307;53.142;6.430;2023-08-01T04:49:49;1.38;;;0.50;;
55435;SDS011;41307;53.142;6.430;2023-08-01T04:52:14;1.65;;;0.45;;
55435;SDS011;41307;53.142;6.430;2023-08-01T04:54:40;1.45;;;0.40;;
55435;SDS011;41307;53.142;6.430;2023-08-01T04:57:06;1.02;;;0.38;;
55435;SDS011;41307;53.142;6.430;2023-08-01T04:59:32;0.50;;;0.30;;
55435;SDS011;41307;53.142;6.430;2023-08-01T05:01:57;0.63;;;0.30;;
55435;SDS011;41307;53.142;6.430;2023-08-01T05:04:23;2.85;;;0.55;;
55435;SDS011;41307;53.142;6.430;2023-08-01T05:06:50;1.13;;;0.38;;
55435;SDS011;41307;53.142;6.430;2023-08-01T05:09:15;1.83;;;0.52;;
55435;SDS011;41307;53.142;6.430;2023-08-01T05:11:41;0.60;;;0.30;;
55435;SDS011;41307;53.142;6.430;2023-08-01T05:14:07;1.52;;;0.52;;
55435;SDS011;41307;53.142;6.430;2023-08-01T05:16:33;1.75;;;0.30;;
55435;SDS011;41307;53.142;6.430;2023-08-01T05:18:58;2.47;;;0.40;;
55435;SDS011;41307;53.142;6.430;2023-08-01T05:21:24;1.50;;;0.50;;
55435;SDS011;41307;53.142;6.430;2023-08-01T05:23:50;0.57;;;0.28;;
55435;SDS011;41307;53.142;6.430;2023-08-01T05:26:16;2.65;;;0.63;;
55435;SDS011;41307;53.142;6.430;2023-08-01T05:28:41;1.38;;;0.38;;
55435;SDS011;41307;53.142;6.430;2023-08-01T05:31:07;1.13;;;0.50;;
55435;SDS011;41307;53.142;6.430;2023-08-01T05:33:33;1.55;;;0.60;;
55435;SDS011;41307;53.142;6.430;2023-08-01T05:35:59;0.93;;;0.52;;
55435;SDS011;41307;53.142;6.430;2023-08-01T05:38:24;1.08;;;0.40;;
55435;SDS011;41307;53.142;6.430;2023-08-01T05:40:50;2.42;;;0.85;;
55435;SDS011;41307;53.142;6.430;2023-08-01T05:43:16;2.50;;;0.50;;
55435;SDS011;41307;53.142;6.430;2023-08-01T05:45:42;2.30;;;0.38;;
55435;SDS011;41307;53.142;6.430;2023-08-01T05:48:08;1.95;;;0.68;;
55435;SDS011;41307;53.142;6.430;2023-08-01T05:50:34;1.23;;;0.57;;
55435;SDS011;41307;53.142;6.430;2023-08-01T05:52:59;1.13;;;0.50;;
55435;SDS011;41307;53.142;6.430;2023-08-01T05:55:25;1.77;;;0.60;;
55435;SDS011;41307;53.142;6.430;2023-08-01T05:57:53;1.92;;;0.70;;
55435;SDS011;41307;53.142;6.430;2023-08-01T06:00:21;1.95;;;0.57;;
55435;SDS011;41307;53.142;6.430;2023-08-01T06:02:47;0.98;;;0.57;;
55435;SDS011;41307;53.142;6.430;2023-08-01T06:05:13;1.40;;;0.60;;
55435;SDS011;41307;53.142;6.430;2023-08-01T06:07:39;1.00;;;0.47;;
55435;SDS011;41307;53.142;6.430;2023-08-01T06:10:05;2.28;;;0.70;;
55435;SDS011;41307;53.142;6.430;2023-08-01T06:12:31;1.67;;;0.52;;
55435;SDS011;41307;53.142;6.430;2023-08-01T06:14:57;1.58;;;0.68;;
55435;SDS011;41307;53.142;6.430;2023-08-01T06:17:23;0.95;;;0.57;;
55435;SDS011;41307;53.142;6.430;2023-08-01T06:19:48;1.10;;;0.52;;
55435;SDS011;41307;53.142;6.430;2023-08-01T06:22:15;1.23;;;0.50;;
55435;SDS011;41307;53.142;6.430;2023-08-01T06:24:41;1.40;;;0.40;;
55435;SDS011;41307;53.142;6.430;2023-08-01T06:27:06;2.17;;;0.80;;
55435;SDS011;41307;53.142;6.430;2023-08-01T06:29:32;0.90;;;0.50;;
55435;SDS011;41307;53.142;6.430;2023-08-01T06:31:58;1.83;;;0.40;;
55435;SDS011;41307;53.142;6.430;2023-08-01T06:34:24;1.80;;;0.40;;
55435;SDS011;41307;53.142;6.430;2023-08-01T06:36:50;0.70;;;0.45;;
55435;SDS011;41307;53.142;6.430;2023-08-01T06:39:16;1.10;;;0.50;;
55435;SDS011;41307;53.142;6.430;2023-08-01T06:41:41;1.45;;;0.55;;
55435;SDS011;41307;53.142;6.430;2023-08-01T06:44:07;1.60;;;0.50;;
55435;SDS011;41307;53.142;6.430;2023-08-01T06:46:33;1.52;;;0.43;;
55435;SDS011;41307;53.142;6.430;2023-08-01T06:48:58;0.85;;;0.30;;
55435;SDS011;41307;53.142;6.430;2023-08-01T06:51:24;1.05;;;0.50;;
55435;SDS011;41307;53.142;6.430;2023-08-01T06:53:50;0.60;;;0.30;;
55435;SDS011;41307;53.142;6.430;2023-08-01T06:56:16;1.75;;;0.30;;
55435;SDS011;41307;53.142;6.430;2023-08-01T06:58:42;1.20;;;0.20;;
55435;SDS011;41307;53.142;6.430;2023-08-01T07:01:07;1.35;;;0.25;;
55435;SDS011;41307;53.142;6.430;2023-08-01T07:03:33;3.25;;;0.47;;
55435;SDS011;41307;53.142;6.430;2023-08-01T07:05:59;1.52;;;0.45;;
55435;SDS011;41307;53.142;6.430;2023-08-01T07:08:25;0.73;;;0.35;;
55435;SDS011;41307;53.142;6.430;2023-08-01T07:10:50;2.58;;;0.28;;
55435;SDS011;41307;53.142;6.430;2023-08-01T07:13:16;1.98;;;0.20;;
55435;SDS011;41307;53.142;6.430;2023-08-01T07:15:44;1.52;;;0.20;;
55435;SDS011;41307;53.142;6.430;2023-08-01T07:18:10;0.65;;;0.30;;
55435;SDS011;41307;53.142;6.430;2023-08-01T07:20:36;1.13;;;0.20;;
55435;SDS011;41307;53.142;6.430;2023-08-01T07:23:02;0.93;;;0.22;;
55435;SDS011;41307;53.142;6.430;2023-08-01T07:25:27;2.10;;;0.32;;
55435;SDS011;41307;53.142;6.430;2023-08-01T07:27:53;1.83;;;0.30;;
55435;SDS011;41307;53.142;6.430;2023-08-01T07:30:19;1.98;;;0.30;;
55435;SDS011;41307;53.142;6.430;2023-08-01T07:32:45;0.60;;;0.20;;
55435;SDS011;41307;53.142;6.430;2023-08-01T07:35:12;2.08;;;0.32;;
55435;SDS011;41307;53.142;6.430;2023-08-01T07:37:38;0.45;;;0.30;;
55435;SDS011;41307;53.142;6.430;2023-08-01T07:40:08;1.23;;;0.28;;
55435;SDS011;41307;53.142;6.430;2023-08-01T07:42:34;0.88;;;0.50;;
55435;SDS011;41307;53.142;6.430;2023-08-01T07:45:00;1.63;;;0.25;;
55435;SDS011;41307;53.142;6.430;2023-08-01T07:47:25;0.38;;;0.20;;
55435;SDS011;41307;53.142;6.430;2023-08-01T07:49:51;0.80;;;0.20;;
55435;SDS011;41307;53.142;6.430;2023-08-01T07:52:17;0.90;;;0.35;;
55435;SDS011;41307;53.142;6.430;2023-08-01T07:54:43;0.45;;;0.20;;
55435;SDS011;41307;53.142;6.430;2023-08-01T07:57:09;0.45;;;0.10;;
55435;SDS011;41307;53.142;6.430;2023-08-01T07:59:34;2.22;;;0.43;;
55435;SDS011;41307;53.142;6.430;2023-08-01T08:02:00;0.90;;;0.40;;
55435;SDS011;41307;53.142;6.430;2023-08-01T08:04:26;1.80;;;0.20;;
55435;SDS011;41307;53.142;6.430;2023-08-01T08:06:52;1.05;;;0.30;;
55435;SDS011;41307;53.142;6.430;2023-08-01T08:09:19;1.63;;;0.35;;
55435;SDS011;41307;53.142;6.430;2023-08-01T08:11:47;1.95;;;0.75;;
55435;SDS011;41307;53.142;6.430;2023-08-01T08:14:13;2.05;;;0.90;;
55435;SDS011;41307;53.142;6.430;2023-08-01T08:16:40;2.15;;;0.55;;
55435;SDS011;41307;53.142;6.430;2023-08-01T08:19:06;0.50;;;0.20;;
55435;SDS011;41307;53.142;6.430;2023-08-01T08:21:32;1.17;;;0.40;;
55435;SDS011;41307;53.142;6.430;2023-08-01T08:23:58;2.72;;;0.50;;
55435;SDS011;41307;53.142;6.430;2023-08-01T08:26:25;2.08;;;0.50;;
55435;SDS011;41307;53.142;6.430;2023-08-01T08:28:51;0.40;;;0.25;;
55435;SDS011;41307;53.142;6.430;2023-08-01T08:31:17;0.55;;;0.30;;
55435;SDS011;41307;53.142;6.430;2023-08-01T08:33:43;2.75;;;0.40;;
55435;SDS011;41307;53.142;6.430;2023-08-01T08:36:09;2.97;;;0.30;;
55435;SDS011;41307;53.142;6.430;2023-08-01T08:38:35;0.35;;;0.22;;
55435;SDS011;41307;53.142;6.430;2023-08-01T08:41:10;0.40;;;0.22;;
55435;SDS011;41307;53.142;6.430;2023-08-01T08:43:39;0.98;;;0.40;;
55435;SDS011;41307;53.142;6.430;2023-08-01T08:46:06;0.30;;;0.30;;
55435;SDS011;41307;53.142;6.430;2023-08-01T08:48:34;1.60;;;0.63;;
55435;SDS011;41307;53.142;6.430;2023-08-01T08:51:02;2.05;;;0.40;;
55435;SDS011;41307;53.142;6.430;2023-08-01T08:53:30;2.58;;;0.60;;
55435;SDS011;41307;53.142;6.430;2023-08-01T08:55:58;0.50;;;0.28;;
55435;SDS011;41307;53.142;6.430;2023-08-01T08:58:25;1.00;;;0.40;;
55435;SDS011;41307;53.142;6.430;2023-08-01T09:00:51;3.17;;;0.50;;
55435;SDS011;41307;53.142;6.430;2023-08-01T09:03:17;1.52;;;0.73;;
55435;SDS011;41307;53.142;6.430;2023-08-01T09:05:50;0.40;;;0.35;;
55435;SDS011;41307;53.142;6.430;2023-08-01T09:08:20;2.20;;;0.38;;
55435;SDS011;41307;53.142;6.430;2023-08-01T09:10:50;2.20;;;0.50;;
55435;SDS011;41307;53.142;6.430;2023-08-01T09:13:15;2.13;;;0.30;;
55435;SDS011;41307;53.142;6.430;2023-08-01T09:15:41;1.42;;;0.70;;
55435;SDS011;41307;53.142;6.430;2023-08-01T09:18:10;0.95;;;0.40;;
55435;SDS011;41307;53.142;6.430;2023-08-01T09:23:29;1.80;;;0.43;;
55435;SDS011;41307;53.142;6.430;2023-08-01T09:25:55;1.35;;;0.30;;
55435;SDS011;41307;53.142;6.430;2023-08-01T09:28:22;0.70;;;0.30;;
55435;SDS011;41307;53.142;6.430;2023-08-01T09:30:49;0.80;;;0.30;;
55435;SDS011;41307;53.142;6.430;2023-08-01T09:33:17;1.08;;;0.35;;
55435;SDS011;41307;53.142;6.430;2023-08-01T09:35:43;1.17;;;0.50;;
55435;SDS011;41307;53.142;6.430;2023-08-01T09:38:14;0.43;;;0.10;;
55435;SDS011;41307;53.142;6.430;2023-08-01T09:40:44;2.95;;;0.20;;
55435;SDS011;41307;53.142;6.430;2023-08-01T09:43:11;0.63;;;0.22;;
55435;SDS011;41307;53.142;6.430;2023-08-01T09:45:37;0.68;;;0.30;;
55435;SDS011;41307;53.142;6.430;2023-08-01T09:48:21;0.55;;;0.20;;
55435;SDS011;41307;53.142;6.430;2023-08-01T09:50:48;0.43;;;0.20;;
55435;SDS011;41307;53.142;6.430;2023-08-01T09:53:14;1.13;;;0.35;;
55435;SDS011;41307;53.142;6.430;2023-08-01T09:55:40;0.82;;;0.28;;
55435;SDS011;41307;53.142;6.430;2023-08-01T09:58:15;0.20;;;0.13;;
55435;SDS011;41307;53.142;6.430;2023-08-01T10:00:44;1.17;;;0.28;;
55435;SDS011;41307;53.142;6.430;2023-08-01T10:03:10;0.88;;;0.20;;
55435;SDS011;41307;53.142;6.430;2023-08-01T10:05:36;1.17;;;0.25;;
55435;SDS011;41307;53.142;6.430;2023-08-01T10:08:05;1.25;;;0.20;;
55435;SDS011;41307;53.142;6.430;2023-08-01T10:10:31;1.10;;;0.30;;
55435;SDS011;41307;53.142;6.430;2023-08-01T10:12:57;0.20;;;0.20;;
55435;SDS011;41307;53.142;6.430;2023-08-01T10:15:25;1.50;;;0.40;;
55435;SDS011;41307;53.142;6.430;2023-08-01T10:17:53;1.20;;;0.32;;
55435;SDS011;41307;53.142;6.430;2023-08-01T10:20:19;1.33;;;0.50;;
55435;SDS011;41307;53.142;6.430;2023-08-01T10:22:47;1.38;;;0.38;;
55435;SDS011;41307;53.142;6.430;2023-08-01T10:25:15;0.40;;;0.30;;
55435;SDS011;41307;53.142;6.430;2023-08-01T10:27:42;1.15;;;0.50;;
55435;SDS011;41307;53.142;6.430;2023-08-01T10:30:08;1.80;;;0.43;;
55435;SDS011;41307;53.142;6.430;2023-08-01T10:32:35;1.85;;;0.60;;
55435;SDS011;41307;53.142;6.430;2023-08-01T10:35:03;1.63;;;0.50;;
55435;SDS011;41307;53.142;6.430;2023-08-01T10:37:42;0.95;;;0.30;;
55435;SDS011;41307;53.142;6.430;2023-08-01T10:40:09;0.82;;;0.40;;
55435;SDS011;41307;53.142;6.430;2023-08-01T10:42:39;0.20;;;0.20;;
55435;SDS011;41307;53.142;6.430;2023-08-01T10:45:06;1.92;;;0.40;;
55435;SDS011;41307;53.142;6.430;2023-08-01T10:47:34;1.00;;;0.35;;
55435;SDS011;41307;53.142;6.430;2023-08-01T10:50:00;1.05;;;0.47;;
55435;SDS011;41307;53.142;6.430;2023-08-01T10:52:28;0.52;;;0.28;;
55435;SDS011;41307;53.142;6.430;2023-08-01T10:55:03;0.88;;;0.30;;
55435;SDS011;41307;53.142;6.430;2023-08-01T10:57:33;0.52;;;0.30;;
55435;SDS011;41307;53.142;6.430;2023-08-01T11:00:00;2.58;;;0.45;;
55435;SDS011;41307;53.142;6.430;2023-08-01T11:02:29;1.67;;;0.40;;
55435;SDS011;41307;53.142;6.430;2023-08-01T11:04:59;1.15;;;0.30;;
55435;SDS011;41307;53.142;6.430;2023-08-01T11:07:33;0.10;;;0.10;;
55435;SDS011;41307;53.142;6.430;2023-08-01T11:10:07;0.30;;;0.10;;
55435;SDS011;41307;53.142;6.430;2023-08-01T11:12:35;0.75;;;0.32;;
55435;SDS011;41307;53.142;6.430;2023-08-01T11:15:06;0.47;;;0.30;;
55435;SDS011;41307;53.142;6.430;2023-08-01T11:17:37;2.28;;;0.50;;
55435;SDS011;41307;53.142;6.430;2023-08-01T11:20:07;0.52;;;0.30;;
55435;SDS011;41307;53.142;6.430;2023-08-01T11:22:35;0.82;;;0.20;;
55435;SDS011;41307;53.142;6.430;2023-08-01T11:25:02;0.73;;;0.20;;
55435;SDS011;41307;53.142;6.430;2023-08-01T11:27:28;2.05;;;0.25;;
55435;SDS011;41307;53.142;6.430;2023-08-01T11:29:54;0.68;;;0.20;;
55435;SDS011;41307;53.142;6.430;2023-08-01T11:32:21;0.70;;;0.30;;
55435;SDS011;41307;53.142;6.430;2023-08-01T11:34:48;3.20;;;0.30;;
55435;SDS011;41307;53.142;6.430;2023-08-01T11:37:15;0.40;;;0.20;;
55435;SDS011;41307;53.142;6.430;2023-08-01T11:39:43;2.83;;;0.47;;
55435;SDS011;41307;53.142;6.430;2023-08-01T11:42:14;1.02;;;0.15;;
55435;SDS011;41307;53.142;6.430;2023-08-01T11:44:41;0.73;;;0.20;;
55435;SDS011;41307;53.142;6.430;2023-08-01T11:47:13;2.00;;;0.28;;
55435;SDS011;41307;53.142;6.430;2023-08-01T11:49:47;0.47;;;0.10;;
55435;SDS011;41307;53.142;6.430;2023-08-01T11:52:23;2.47;;;0.30;;
55435;SDS011;41307;53.142;6.430;2023-08-01T11:54:50;0.80;;;0.10;;
55435;SDS011;41307;53.142;6.430;2023-08-01T11:57:16;0.52;;;0.20;;
55435;SDS011;41307;53.142;6.430;2023-08-01T11:59:49;0.82;;;0.25;;
55435;SDS011;41307;53.142;6.430;2023-08-01T12:02:22;1.00;;;0.40;;
55435;SDS011;41307;53.142;6.430;2023-08-01T12:04:52;1.23;;;0.30;;
55435;SDS011;41307;53.142;6.430;2023-08-01T12:07:19;0.77;;;0.43;;
55435;SDS011;41307;53.142;6.430;2023-08-01T12:09:58;1.25;;;0.40;;
55435;SDS011;41307;53.142;6.430;2023-08-01T12:12:26;1.23;;;0.40;;
55435;SDS011;41307;53.142;6.430;2023-08-01T12:14:52;2.25;;;0.30;;
55435;SDS011;41307;53.142;6.430;2023-08-01T12:17:19;2.55;;;0.50;;
55435;SDS011;41307;53.142;6.430;2023-08-01T12:19:45;2.38;;;0.75;;
55435;SDS011;41307;53.142;6.430;2023-08-01T12:22:11;2.63;;;0.38;;
55435;SDS011;41307;53.142;6.430;2023-08-01T12:24:37;1.45;;;0.50;;
55435;SDS011;41307;53.142;6.430;2023-08-01T12:27:07;1.67;;;0.52;;
55435;SDS011;41307;53.142;6.430;2023-08-01T12:29:34;1.50;;;0.30;;
55435;SDS011;41307;53.142;6.430;2023-08-01T12:32:01;1.02;;;0.30;;
55435;SDS011;41307;53.142;6.430;2023-08-01T12:34:27;0.47;;;0.20;;
55435;SDS011;41307;53.142;6.430;2023-08-01T12:36:53;1.48;;;0.22;;
55435;SDS011;41307;53.142;6.430;2023-08-01T12:39:19;0.52;;;0.22;;
55435;SDS011;41307;53.142;6.430;2023-08-01T12:41:45;0.73;;;0.40;;
55435;SDS011;41307;53.142;6.430;2023-08-01T12:44:10;2.53;;;0.40;;
55435;SDS011;41307;53.142;6.430;2023-08-01T12:46:37;1.40;;;0.40;;
55435;SDS011;41307;53.142;6.430;2023-08-01T12:49:04;0.60;;;0.30;;
55435;SDS011;41307;53.142;6.430;2023-08-01T12:51:30;0.73;;;0.30;;
55435;SDS011;41307;53.142;6.430;2023-08-01T12:53:55;2.47;;;0.30;;
55435;SDS011;41307;53.142;6.430;2023-08-01T12:56:21;0.40;;;0.30;;
55435;SDS011;41307;53.142;6.430;2023-08-01T12:58:47;1.35;;;0.32;;
55435;SDS011;41307;53.142;6.430;2023-08-01T13:01:12;0.80;;;0.20;;
55435;SDS011;41307;53.142;6.430;2023-08-01T13:03:38;2.83;;;0.40;;
55435;SDS011;41307;53.142;6.430;2023-08-01T13:06:04;1.38;;;0.43;;
55435;SDS011;41307;53.142;6.430;2023-08-01T13:08:30;3.42;;;0.60;;
55435;SDS011;41307;53.142;6.430;2023-08-01T13:10:56;1.50;;;0.38;;
55435;SDS011;41307;53.142;6.430;2023-08-01T13:13:24;1.00;;;0.22;;
55435;SDS011;41307;53.142;6.430;2023-08-01T13:15:50;0.60;;;0.30;;
55435;SDS011;41307;53.142;6.430;2023-08-01T13:18:16;2.47;;;0.40;;
55435;SDS011;41307;53.142;6.430;2023-08-01T13:20:42;1.27;;;0.30;;
55435;SDS011;41307;53.142;6.430;2023-08-01T13:23:08;1.73;;;0.47;;
55435;SDS011;41307;53.142;6.430;2023-08-01T13:25:34;0.93;;;0.32;;
55435;SDS011;41307;53.142;6.430;2023-08-01T13:28:00;1.95;;;0.43;;
55435;SDS011;41307;53.142;6.430;2023-08-01T13:30:26;1.60;;;0.40;;
55435;SDS011;41307;53.142;6.430;2023-08-01T13:32:52;2.13;;;0.40;;
55435;SDS011;41307;53.142;6.430;2023-08-01T13:35:17;2.10;;;0.30;;
55435;SDS011;41307;53.142;6.430;2023-08-01T13:37:43;1.60;;;0.30;;
55435;SDS011;41307;53.142;6.430;2023-08-01T13:40:11;0.65;;;0.30;;
55435;SDS011;41307;53.142;6.430;2023-08-01T13:42:38;0.73;;;0.38;;
55435;SDS011;41307;53.142;6.430;2023-08-01T13:45:05;1.83;;;0.47;;
55435;SDS011;41307;53.142;6.430;2023-08-01T13:47:31;1.98;;;0.30;;
55435;SDS011;41307;53.142;6.430;2023-08-01T13:49:57;2.63;;;0.47;;
55435;SDS011;41307;53.142;6.430;2023-08-01T13:52:23;1.85;;;0.50;;
55435;SDS011;41307;53.142;6.430;2023-08-01T13:54:48;0.52;;;0.52;;
55435;SDS011;41307;53.142;6.430;2023-08-01T13:57:14;0.63;;;0.40;;
55435;SDS011;41307;53.142;6.430;2023-08-01T13:59:40;2.22;;;0.77;;
55435;SDS011;41307;53.142;6.430;2023-08-01T14:02:06;1.40;;;0.50;;
55435;SDS011;41307;53.142;6.430;2023-08-01T14:04:31;1.63;;;0.20;;
55435;SDS011;41307;53.142;6.430;2023-08-01T14:06:57;0.55;;;0.30;;
55435;SDS011;41307;53.142;6.430;2023-08-01T14:09:23;1.35;;;0.20;;
55435;SDS011;41307;53.142;6.430;2023-08-01T14:11:49;2.42;;;0.40;;
55435;SDS011;41307;53.142;6.430;2023-08-01T14:14:14;2.40;;;0.45;;
55435;SDS011;41307;53.142;6.430;2023-08-01T14:16:40;1.60;;;0.30;;
55435;SDS011;41307;53.142;6.430;2023-08-01T14:19:06;3.35;;;0.38;;
55435;SDS011;41307;53.142;6.430;2023-08-01T14:21:33;0.32;;;0.20;;
55435;SDS011;41307;53.142;6.430;2023-08-01T14:24:00;1.02;;;0.30;;
55435;SDS011;41307;53.142;6.430;2023-08-01T14:26:26;0.77;;;0.40;;
55435;SDS011;41307;53.142;6.430;2023-08-01T14:28:51;0.40;;;0.30;;
55435;SDS011;41307;53.142;6.430;2023-08-01T14:31:17;1.67;;;0.45;;
55435;SDS011;41307;53.142;6.430;2023-08-01T14:33:43;0.65;;;0.40;;
55435;SDS011;41307;53.142;6.430;2023-08-01T14:36:09;1.92;;;0.40;;
55435;SDS011;41307;53.142;6.430;2023-08-01T14:38:37;1.45;;;0.32;;
55435;SDS011;41307;53.142;6.430;2023-08-01T14:41:06;1.38;;;0.40;;
55435;SDS011;41307;53.142;6.430;2023-08-01T14:43:32;0.70;;;0.20;;
55435;SDS011;41307;53.142;6.430;2023-08-01T14:45:57;0.85;;;0.50;;
55435;SDS011;41307;53.142;6.430;2023-08-01T14:48:26;1.08;;;0.50;;